Time;durP1;ratioP1;P1;durP2;ratioP2;P2;SDS_P1;SDS_P2;PMS_P1;PMS_P2;Temp;Humidity;BMP_temperature;BMP_pressure;BME280_temperature;BME280_humidity;BME280_pressure;Samples;Min_cycle;Max_cycle;Signal;HPM_P1;HPM_P2
2022/05/13 00:01:28;;;;;;;14.55;4.55;;;;;;;;;;5000878;28;20030;-74
2022/05/13 00:03:54;;;;;;;14.88;4.07;;;;;;;;;;5007984;28;20036;-74
2022/05/13 00:06:20;;;;;;;18.02;4.50;;;;;;;;;;5005681;28;20109;-73
2022/05/13 00:08:47;;;;;;;15.38;3.80;;;;;;;;;;5007650;28;20443;-73
2022/05/13 00:11:13;;;;;;;17.95;4.50;;;;;;;;;;5000827;28;20476;-74
2022/05/13 00:13:39;;;;;;;16.25;5.63;;;;;;;;;;5007651;28;20068;-73
2022/05/13 00:16:06;;;;;;;19.83;3.80;;;;;;;;;;5009036;28;20107;-73
2022/05/13 00:18:32;;;;;;;11.57;4.10;;;;;;;;;;5002547;28;20080;-74
2022/05/13 00:20:59;;;;;;;13.85;6.18;;;;;;;;;;5008861;28;20034;-73
2022/05/13 00:23:25;;;;;;;13.85;3.85;;;;;;;;;;5007074;28;20036;-73
2022/05/13 00:25:51;;;;;;;9.70;3.58;;;;;;;;;;5007665;28;20026;-73
2022/05/13 00:28:17;;;;;;;8.40;3.90;;;;;;;;;;5007301;28;20112;-74
2022/05/13 00:30:45;;;;;;;20.75;4.75;;;;;;;;;;5004557;28;20030;-73
2022/05/13 00:33:11;;;;;;;11.75;4.47;;;;;;;;;;5005320;28;20508;-74
2022/05/13 00:35:38;;;;;;;12.95;4.07;;;;;;;;;;5001512;28;20042;-74
2022/05/13 00:38:04;;;;;;;9.00;3.85;;;;;;;;;;5004848;28;20510;-73
2022/05/13 00:40:31;;;;;;;14.73;3.72;;;;;;;;;;5011585;28;20034;-73
2022/05/13 00:42:59;;;;;;;19.02;3.55;;;;;;;;;;5009590;28;20021;-74
2022/05/13 00:45:25;;;;;;;10.68;3.95;;;;;;;;;;5008571;28;20030;-73
2022/05/13 00:47:51;;;;;;;11.50;4.30;;;;;;;;;;5007110;28;20349;-73
2022/05/13 00:50:17;;;;;;;11.65;4.80;;;;;;;;;;5002259;28;20030;-74
2022/05/13 00:52:46;;;;;;;10.48;4.22;;;;;;;;;;5002476;28;20140;-73
2022/05/13 00:55:15;;;;;;;13.88;4.18;;;;;;;;;;4995410;28;20060;-73
2022/05/13 00:57:42;;;;;;;14.05;4.13;;;;;;;;;;5004946;28;20389;-74
2022/05/13 01:00:11;;;;;;;10.65;5.22;;;;;;;;;;4993470;28;20033;-75
2022/05/13 01:02:43;;;;;;;12.65;3.50;;;;;;;;;;5008756;28;20372;-74
2022/05/13 01:05:10;;;;;;;15.07;3.75;;;;;;;;;;5002030;28;20030;-74
2022/05/13 01:07:36;;;;;;;14.48;3.95;;;;;;;;;;5004513;28;20116;-74
2022/05/13 01:10:04;;;;;;;16.73;3.70;;;;;;;;;;5003718;28;20224;-74
2022/05/13 01:12:32;;;;;;;11.38;3.78;;;;;;;;;;5004141;28;20432;-73
2022/05/13 01:15:01;;;;;;;11.98;3.55;;;;;;;;;;5004919;28;20029;-74
2022/05/13 01:20:15;;;;;;;10.95;3.45;;;;;;;;;;5002549;28;20099;-74
2022/05/13 01:22:45;;;;;;;8.70;3.90;;;;;;;;;;5007491;28;20096;-73
2022/05/13 01:25:13;;;;;;;18.17;4.30;;;;;;;;;;5007006;28;20022;-73
2022/05/13 01:27:44;;;;;;;12.07;4.43;;;;;;;;;;5004978;28;20101;-73
2022/05/13 01:30:13;;;;;;;13.93;4.25;;;;;;;;;;5006348;28;20037;-73
2022/05/13 01:32:39;;;;;;;10.23;3.70;;;;;;;;;;5006364;28;20026;-73
2022/05/13 01:35:05;;;;;;;19.25;4.53;;;;;;;;;;5010437;28;20022;-73
2022/05/13 01:37:32;;;;;;;12.30;3.78;;;;;;;;;;5009213;28;20033;-73
2022/05/13 01:39:59;;;;;;;13.52;3.33;;;;;;;;;;5002782;28;20176;-73
2022/05/13 01:42:25;;;;;;;10.57;3.40;;;;;;;;;;5009394;28;20033;-72
2022/05/13 01:44:54;;;;;;;11.93;4.00;;;;;;;;;;5015101;28;20048;-72
2022/05/13 01:47:20;;;;;;;12.40;3.85;;;;;;;;;;5017366;28;20087;-74
2022/05/13 01:49:46;;;;;;;12.23;3.75;;;;;;;;;;5011809;28;20026;-73
2022/05/13 01:52:12;;;;;;;12.63;4.15;;;;;;;;;;5013364;28;20048;-74
2022/05/13 01:54:38;;;;;;;11.15;3.72;;;;;;;;;;5011240;28;20694;-74
2022/05/13 01:57:05;;;;;;;15.65;5.00;;;;;;;;;;5014838;28;20037;-74
2022/05/13 01:59:31;;;;;;;13.25;4.45;;;;;;;;;;5017565;28;20034;-73
2022/05/13 02:01:57;;;;;;;10.07;4.80;;;;;;;;;;5014428;28;20441;-74
2022/05/13 02:04:23;;;;;;;10.00;3.90;;;;;;;;;;5011871;28;20037;-73
2022/05/13 02:06:49;;;;;;;10.43;3.58;;;;;;;;;;5013435;28;20030;-74
2022/05/13 02:09:19;;;;;;;12.80;4.00;;;;;;;;;;5014973;28;20034;-73
2022/05/13 02:11:46;;;;;;;7.90;3.78;;;;;;;;;;5012431;28;20059;-73
2022/05/13 02:14:15;;;;;;;11.57;3.83;;;;;;;;;;5015474;28;20025;-74
2022/05/13 02:16:41;;;;;;;10.00;4.18;;;;;;;;;;5011600;28;20077;-73
2022/05/13 02:19:08;;;;;;;10.30;4.30;;;;;;;;;;5013578;28;20104;-74
2022/05/13 02:21:34;;;;;;;16.85;4.68;;;;;;;;;;5012482;28;20358;-74
2022/05/13 02:24:00;;;;;;;12.65;4.07;;;;;;;;;;5013279;28;20022;-74
2022/05/13 02:26:26;;;;;;;11.18;4.10;;;;;;;;;;5011365;28;20083;-73
2022/05/13 02:28:53;;;;;;;13.02;3.92;;;;;;;;;;5009702;28;20129;-74
2022/05/13 02:31:19;;;;;;;16.20;4.20;;;;;;;;;;5008118;28;20045;-73
2022/05/13 02:33:45;;;;;;;5.70;3.58;;;;;;;;;;5014087;28;20460;-72
2022/05/13 02:36:12;;;;;;;13.82;4.50;;;;;;;;;;5011760;28;20113;-73
2022/05/13 02:38:39;;;;;;;8.40;3.17;;;;;;;;;;5014592;28;20034;-74
2022/05/13 02:41:13;;;;;;;13.52;3.55;;;;;;;;;;5016112;28;20030;-73
2022/05/13 02:43:45;;;;;;;14.43;5.28;;;;;;;;;;5011012;28;20030;-74
2022/05/13 02:46:12;;;;;;;10.63;3.75;;;;;;;;;;5009813;28;20030;-74
2022/05/13 02:48:38;;;;;;;14.20;4.25;;;;;;;;;;5012858;28;20438;-74
2022/05/13 02:51:05;;;;;;;22.42;6.30;;;;;;;;;;5015078;28;20034;-73
2022/05/13 02:53:31;;;;;;;15.38;4.63;;;;;;;;;;5011437;28;20531;-74
2022/05/13 02:55:57;;;;;;;14.32;4.00;;;;;;;;;;5015858;28;20872;-74
2022/05/13 02:58:23;;;;;;;12.32;4.07;;;;;;;;;;5012437;28;20029;-74
2022/05/13 03:00:49;;;;;;;15.18;4.00;;;;;;;;;;5013693;28;20030;-74
2022/05/13 03:03:18;;;;;;;12.02;3.72;;;;;;;;;;5016489;28;20022;-74
2022/05/13 03:05:45;;;;;;;12.68;4.43;;;;;;;;;;5017507;28;20044;-74
2022/05/13 03:08:11;;;;;;;14.43;4.50;;;;;;;;;;5019205;28;20026;-75
2022/05/13 03:10:38;;;;;;;12.13;4.55;;;;;;;;;;5013242;28;20037;-75
2022/05/13 03:13:06;;;;;;;9.80;4.47;;;;;;;;;;5014792;28;20087;-74
2022/05/13 03:15:32;;;;;;;15.35;3.72;;;;;;;;;;5009806;28;20038;-74
2022/05/13 03:17:58;;;;;;;12.88;3.75;;;;;;;;;;5015027;28;20048;-73
2022/05/13 03:20:25;;;;;;;16.58;4.20;;;;;;;;;;5012367;28;20030;-73
2022/05/13 03:22:55;;;;;;;23.77;3.85;;;;;;;;;;5007246;28;20120;-73
2022/05/13 03:25:21;;;;;;;13.60;4.22;;;;;;;;;;5014132;28;20106;-74
2022/05/13 03:27:54;;;;;;;13.70;4.40;;;;;;;;;;5013583;28;20037;-75
2022/05/13 03:30:22;;;;;;;8.73;3.85;;;;;;;;;;5016272;28;20033;-74
2022/05/13 03:32:58;;;;;;;13.05;3.22;;;;;;;;;;5012506;28;20065;-74
2022/05/13 03:35:26;;;;;;;15.02;4.57;;;;;;;;;;5007770;28;20038;-74
2022/05/13 03:37:52;;;;;;;17.65;4.07;;;;;;;;;;5008953;28;20018;-75
2022/05/13 03:40:18;;;;;;;9.95;3.72;;;;;;;;;;5014825;28;20044;-75
2022/05/13 03:42:45;;;;;;;15.70;4.22;;;;;;;;;;5009161;28;20065;-74
2022/05/13 03:45:12;;;;;;;12.45;3.60;;;;;;;;;;5014597;28;20215;-74
2022/05/13 03:47:38;;;;;;;11.48;3.30;;;;;;;;;;5014439;28;20030;-74
2022/05/13 03:50:05;;;;;;;9.18;3.90;;;;;;;;;;5011678;28;20120;-75
2022/05/13 03:52:32;;;;;;;15.63;3.85;;;;;;;;;;5015847;28;20434;-74
2022/05/13 03:54:58;;;;;;;10.75;3.10;;;;;;;;;;5004080;28;20030;-74
2022/05/13 03:57:24;;;;;;;15.85;4.60;;;;;;;;;;5010067;28;20400;-74
2022/05/13 03:59:53;;;;;;;10.35;3.92;;;;;;;;;;5000443;28;20600;-74
2022/05/13 04:02:20;;;;;;;11.80;3.97;;;;;;;;;;5013279;28;20018;-73
2022/05/13 04:10:15;;;;;;;13.67;3.80;;;;;;;;;;5006491;28;20495;-74
2022/05/13 04:18:11;;;;;;;11.13;4.18;;;;;;;;;;5011827;28;20037;-74
2022/05/13 04:20:38;;;;;;;10.23;3.67;;;;;;;;;;5014791;28;20041;-73
2022/05/13 04:23:14;;;;;;;11.77;3.70;;;;;;;;;;5016720;28;20018;-72
2022/05/13 04:25:40;;;;;;;12.95;3.58;;;;;;;;;;5012507;28;20025;-72
2022/05/13 04:28:06;;;;;;;9.48;3.20;;;;;;;;;;5015680;28;20385;-74
2022/05/13 04:30:32;;;;;;;9.02;3.95;;;;;;;;;;5011346;28;20033;-74
2022/05/13 04:32:58;;;;;;;17.02;4.40;;;;;;;;;;5010447;28;20369;-74
2022/05/13 04:35:25;;;;;;;12.45;3.45;;;;;;;;;;5011901;28;20057;-75
2022/05/13 04:37:59;;;;;;;15.23;4.88;;;;;;;;;;5013859;28;20025;-74
2022/05/13 04:40:26;;;;;;;14.00;3.88;;;;;;;;;;5002981;28;20065;-74
2022/05/13 04:42:53;;;;;;;14.48;4.63;;;;;;;;;;5008855;28;20037;-74
2022/05/13 04:45:24;;;;;;;15.95;4.30;;;;;;;;;;5012806;28;20029;-74
2022/05/13 04:50:39;;;;;;;8.80;3.00;;;;;;;;;;5012686;28;20470;-74
2022/05/13 04:53:06;;;;;;;11.52;3.55;;;;;;;;;;5012093;28;20084;-74
2022/05/13 04:55:33;;;;;;;17.98;3.28;;;;;;;;;;5011873;28;20728;-74
2022/05/13 04:57:59;;;;;;;11.30;3.67;;;;;;;;;;5012199;28;20018;-76
2022/05/13 05:00:25;;;;;;;9.05;3.00;;;;;;;;;;5012021;28;20325;-75
2022/05/13 05:02:51;;;;;;;10.50;3.33;;;;;;;;;;5013610;28;20480;-76
2022/05/13 05:05:18;;;;;;;10.25;4.25;;;;;;;;;;5024790;28;20080;-74
2022/05/13 05:07:44;;;;;;;9.02;3.72;;;;;;;;;;5018298;28;20022;-74
2022/05/13 05:10:13;;;;;;;9.38;4.07;;;;;;;;;;5012153;28;20380;-74
2022/05/13 05:12:42;;;;;;;10.23;4.63;;;;;;;;;;5004819;28;20027;-73
2022/05/13 05:15:09;;;;;;;12.60;3.40;;;;;;;;;;5005447;28;20446;-74
2022/05/13 05:17:35;;;;;;;9.93;3.13;;;;;;;;;;5008422;28;20411;-74
2022/05/13 05:20:01;;;;;;;11.93;3.33;;;;;;;;;;5015629;28;20025;-74
2022/05/13 05:22:27;;;;;;;13.35;3.70;;;;;;;;;;5013786;28;20037;-73
2022/05/13 05:24:53;;;;;;;8.70;3.30;;;;;;;;;;5009736;28;20276;-74
2022/05/13 05:27:19;;;;;;;11.75;3.00;;;;;;;;;;5014173;28;20034;-75
2022/05/13 05:29:46;;;;;;;11.32;3.28;;;;;;;;;;5017260;28;20551;-74
2022/05/13 05:32:15;;;;;;;7.10;3.00;;;;;;;;;;5010234;28;20030;-74
2022/05/13 05:34:41;;;;;;;10.75;3.17;;;;;;;;;;5015027;28;20060;-74
2022/05/13 05:37:07;;;;;;;20.40;4.70;;;;;;;;;;5019223;28;20648;-73
2022/05/13 05:39:34;;;;;;;16.48;4.30;;;;;;;;;;5012373;28;20057;-74
2022/05/13 05:42:00;;;;;;;17.80;3.97;;;;;;;;;;5016718;28;20026;-74
2022/05/13 05:44:26;;;;;;;14.52;4.68;;;;;;;;;;5015542;28;20547;-75
2022/05/13 05:46:52;;;;;;;7.53;3.30;;;;;;;;;;5016009;28;20145;-75
2022/05/13 05:49:19;;;;;;;9.38;3.03;;;;;;;;;;5012558;28;20406;-74
2022/05/13 05:51:46;;;;;;;11.88;3.30;;;;;;;;;;5014473;28;20025;-75
2022/05/13 05:57:14;;;;;;;8.40;3.15;;;;;;;;;;5012133;28;20510;-75
2022/05/13 05:59:44;;;;;;;8.13;3.38;;;;;;;;;;5016959;28;20057;-73
2022/05/13 06:02:11;;;;;;;8.93;3.50;;;;;;;;;;5014243;28;20026;-73
2022/05/13 06:04:37;;;;;;;12.82;3.90;;;;;;;;;;5015788;28;20034;-73
2022/05/13 06:07:05;;;;;;;11.50;4.10;;;;;;;;;;5017030;28;20121;-74
2022/05/13 06:09:31;;;;;;;14.95;3.90;;;;;;;;;;5014656;28;20026;-73
2022/05/13 06:11:57;;;;;;;14.70;3.85;;;;;;;;;;5014410;28;20127;-74
2022/05/13 06:14:24;;;;;;;9.43;4.13;;;;;;;;;;5014333;28;20101;-73
2022/05/13 06:16:51;;;;;;;9.88;3.97;;;;;;;;;;5014210;28;20075;-74
2022/05/13 06:19:17;;;;;;;10.95;3.33;;;;;;;;;;5016488;28;20026;-75
2022/05/13 06:21:44;;;;;;;12.13;4.43;;;;;;;;;;5013159;28;20030;-74
2022/05/13 06:24:13;;;;;;;10.27;4.63;;;;;;;;;;5017007;28;20026;-73
2022/05/13 06:26:42;;;;;;;12.05;4.03;;;;;;;;;;5016482;28;20072;-75
2022/05/13 06:29:08;;;;;;;9.27;3.95;;;;;;;;;;5016137;28;20084;-73
2022/05/13 06:31:36;;;;;;;15.85;4.18;;;;;;;;;;5011328;28;20549;-75
2022/05/13 06:34:05;;;;;;;13.68;3.90;;;;;;;;;;5017554;28;20392;-72
2022/05/13 06:36:33;;;;;;;16.65;6.07;;;;;;;;;;5009995;28;20033;-74
2022/05/13 06:39:00;;;;;;;16.95;4.57;;;;;;;;;;5010789;28;20026;-74
2022/05/13 06:41:26;;;;;;;11.38;3.95;;;;;;;;;;5012266;28;20025;-75
2022/05/13 06:43:52;;;;;;;15.27;5.60;;;;;;;;;;5010135;28;20037;-74
2022/05/13 06:46:18;;;;;;;11.20;4.10;;;;;;;;;;5013681;28;20033;-74
2022/05/13 06:48:44;;;;;;;12.23;4.30;;;;;;;;;;5012333;28;20038;-74
2022/05/13 06:51:11;;;;;;;18.58;4.88;;;;;;;;;;5015169;28;20033;-76
2022/05/13 06:53:37;;;;;;;19.48;4.80;;;;;;;;;;5013040;28;20025;-74
2022/05/13 06:56:03;;;;;;;11.45;3.53;;;;;;;;;;5016016;28;20118;-74
2022/05/13 06:58:32;;;;;;;11.18;3.33;;;;;;;;;;5009357;28;20387;-74
2022/05/13 07:00:58;;;;;;;16.13;3.83;;;;;;;;;;5013067;28;20026;-74
2022/05/13 07:03:24;;;;;;;12.43;3.50;;;;;;;;;;5008846;28;20045;-74
2022/05/13 07:05:50;;;;;;;13.25;3.85;;;;;;;;;;5013279;28;20033;-74
2022/05/13 07:08:16;;;;;;;10.93;4.38;;;;;;;;;;5005132;28;20747;-74
2022/05/13 07:10:46;;;;;;;16.80;4.05;;;;;;;;;;5007623;28;20480;-74
2022/05/13 07:13:14;;;;;;;11.90;4.25;;;;;;;;;;5010036;28;20488;-74
2022/05/13 07:15:40;;;;;;;9.35;4.00;;;;;;;;;;5010713;28;20026;-75
2022/05/13 07:18:06;;;;;;;14.88;4.22;;;;;;;;;;5009229;28;20026;-74
2022/05/13 07:20:32;;;;;;;15.20;4.32;;;;;;;;;;5013841;28;20021;-75
2022/05/13 07:22:59;;;;;;;14.35;3.92;;;;;;;;;;5009680;28;20463;-74
2022/05/13 07:25:26;;;;;;;10.90;4.40;;;;;;;;;;5010432;28;20033;-75
2022/05/13 07:27:52;;;;;;;15.38;5.32;;;;;;;;;;5007015;28;20037;-75
2022/05/13 07:30:18;;;;;;;13.80;4.53;;;;;;;;;;5016314;28;20107;-74
2022/05/13 07:32:45;;;;;;;18.83;4.95;;;;;;;;;;5007022;28;20034;-73
2022/05/13 07:35:11;;;;;;;13.32;4.53;;;;;;;;;;5002205;28;20045;-74
2022/05/13 07:37:37;;;;;;;12.98;5.40;;;;;;;;;;5002646;28;20096;-74
2022/05/13 07:42:49;;;;;;;;;;;;;;;;;;5000609;28;20077;-74
2022/05/13 07:45:17;;;;;;;15.40;4.57;;;;;;;;;;5002888;28;19913;-75
2022/05/13 07:47:43;;;;;;;17.23;4.68;;;;;;;;;;5000725;28;20083;-75
2022/05/13 07:50:11;;;;;;;23.00;4.78;;;;;;;;;;5005464;28;20056;-75
2022/05/13 07:55:15;;;;;;;10.63;4.20;;;;;;;;;;4967303;23;20596;-75
2022/05/13 07:57:42;;;;;;;19.58;4.70;;;;;;;;;;4926790;29;20063;-75
2022/05/13 08:00:26;;;;;;;12.50;4.15;;;;;;;;;;4924533;29;20058;-76
2022/05/13 08:02:56;;;;;;;11.80;5.03;;;;;;;;;;4937490;28;20031;-71
2022/05/13 08:05:23;;;;;;;15.27;4.22;;;;;;;;;;4926405;29;20095;-75
2022/05/13 08:07:49;;;;;;;13.68;5.00;;;;;;;;;;4927487;29;20050;-74
2022/05/13 08:10:15;;;;;;;15.68;4.88;;;;;;;;;;4921758;29;20341;-75
2022/05/13 08:12:43;;;;;;;14.02;5.80;;;;;;;;;;4938024;29;20031;-76
2022/05/13 08:15:10;;;;;;;15.88;4.25;;;;;;;;;;4927665;29;20051;-76
2022/05/13 08:17:36;;;;;;;11.13;3.85;;;;;;;;;;4925912;29;20064;-76
2022/05/13 08:20:03;;;;;;;13.80;4.32;;;;;;;;;;4940916;29;21750;-76
2022/05/13 08:22:29;;;;;;;16.85;5.20;;;;;;;;;;4923806;29;20062;-74
2022/05/13 08:24:55;;;;;;;13.68;5.53;;;;;;;;;;4926153;29;20497;-74
2022/05/13 08:27:21;;;;;;;17.75;4.53;;;;;;;;;;4925781;29;20031;-74
2022/05/13 08:29:47;;;;;;;16.00;5.35;;;;;;;;;;4926358;29;20511;-74
2022/05/13 08:32:13;;;;;;;13.82;5.18;;;;;;;;;;4940258;28;20035;-75
2022/05/13 08:34:39;;;;;;;17.42;5.10;;;;;;;;;;4925378;29;20062;-75
2022/05/13 08:37:06;;;;;;;11.80;4.90;;;;;;;;;;4925320;29;20033;-75
2022/05/13 08:39:32;;;;;;;13.27;4.65;;;;;;;;;;4940920;28;20035;-75
2022/05/13 08:42:07;;;;;;;16.70;6.50;;;;;;;;;;4926616;29;20102;-73
2022/05/13 08:44:34;;;;;;;16.83;4.95;;;;;;;;;;4929075;29;20127;-74
2022/05/13 08:47:03;;;;;;;16.20;4.53;;;;;;;;;;4931164;29;20409;-74
2022/05/13 08:49:29;;;;;;;14.65;5.35;;;;;;;;;;4932984;29;20031;-77
2022/05/13 08:54:59;;;;;;;17.45;4.60;;;;;;;;;;4936045;29;20066;-75
2022/05/13 08:57:28;;;;;;;11.75;4.80;;;;;;;;;;4933502;29;20035;-75
2022/05/13 09:00:26;;;;;;;18.70;4.93;;;;;;;;;;4932206;29;20032;-75
2022/05/13 09:03:01;;;;;;;17.42;4.13;;;;;;;;;;4910559;29;20043;-73
2022/05/13 09:05:29;;;;;;;13.80;5.22;;;;;;;;;;4931255;29;20074;-75
2022/05/13 09:07:56;;;;;;;16.35;3.92;;;;;;;;;;4929886;29;20070;-74
2022/05/13 09:10:23;;;;;;;13.15;5.82;;;;;;;;;;4929935;29;20549;-75
2022/05/13 09:12:50;;;;;;;21.20;4.68;;;;;;;;;;4927960;29;20393;-75
2022/05/13 09:15:19;;;;;;;15.43;5.78;;;;;;;;;;4927059;29;20437;-74
2022/05/13 09:17:45;;;;;;;20.08;4.47;;;;;;;;;;4931196;29;20034;-75
2022/05/13 09:20:16;;;;;;;18.15;5.38;;;;;;;;;;4946637;28;20984;-73
2022/05/13 09:22:44;;;;;;;15.98;5.40;;;;;;;;;;4928522;29;20686;-74
2022/05/13 09:25:27;;;;;;;15.40;4.97;;;;;;;;;;4931457;29;20053;-75
2022/05/13 09:27:59;;;;;;;14.63;5.38;;;;;;;;;;4930824;29;20032;-74
2022/05/13 09:30:36;;;;;;;15.25;4.80;;;;;;;;;;4930743;29;20138;-75
2022/05/13 09:33:21;;;;;;;12.68;5.57;;;;;;;;;;4929246;29;20035;-75
2022/05/13 09:35:48;;;;;;;17.23;5.05;;;;;;;;;;4944965;28;20378;-75
2022/05/13 09:38:16;;;;;;;13.98;4.85;;;;;;;;;;4930428;29;20556;-75
2022/05/13 09:40:55;;;;;;;16.95;4.85;;;;;;;;;;4929312;29;20075;-75
2022/05/13 09:43:42;;;;;;;14.25;4.80;;;;;;;;;;4930587;29;20024;-74
2022/05/13 09:46:13;;;;;;;17.95;4.57;;;;;;;;;;4928683;29;20035;-75
2022/05/13 09:48:40;;;;;;;15.85;5.68;;;;;;;;;;4931087;29;20315;-75
2022/05/13 09:51:25;;;;;;;22.45;5.57;;;;;;;;;;4931300;29;20071;-76
2022/05/13 09:54:01;;;;;;;16.03;4.50;;;;;;;;;;4931114;29;20055;-75
2022/05/13 09:56:35;;;;;;;14.60;5.53;;;;;;;;;;4927782;29;20079;-75
2022/05/13 09:59:04;;;;;;;15.13;6.13;;;;;;;;;;4926837;29;20310;-75
2022/05/13 10:01:30;;;;;;;18.38;5.68;;;;;;;;;;4930734;29;20112;-75
2022/05/13 10:04:08;;;;;;;14.20;4.57;;;;;;;;;;4941697;29;20447;-75
2022/05/13 10:06:35;;;;;;;21.55;5.35;;;;;;;;;;4928309;29;20379;-74
2022/05/13 10:14:40;;;;;;;14.98;4.70;;;;;;;;;;4926658;29;20406;-76
2022/05/13 10:17:14;;;;;;;13.25;5.13;;;;;;;;;;4927821;29;20031;-75
2022/05/13 10:19:46;;;;;;;14.63;4.40;;;;;;;;;;4925919;29;20047;-76
2022/05/13 10:22:12;;;;;;;17.38;4.78;;;;;;;;;;4943501;29;20079;-75
2022/05/13 10:24:44;;;;;;;17.55;4.20;;;;;;;;;;4926271;29;20015;-77
2022/05/13 10:27:16;;;;;;;12.43;4.68;;;;;;;;;;4926182;29;20040;-76
2022/05/13 10:29:45;;;;;;;11.88;5.65;;;;;;;;;;4928175;29;20432;-76
2022/05/13 10:32:20;;;;;;;17.15;5.93;;;;;;;;;;4928540;29;20027;-75
2022/05/13 10:34:48;;;;;;;;;;;;;;;;;;4941936;28;20032;-76
2022/05/13 10:37:17;;;;;;;12.25;5.10;;;;;;;;;;4942009;29;19915;-75
2022/05/13 10:39:49;;;;;;;14.07;4.15;;;;;;;;;;4929378;29;20028;-75
2022/05/13 10:42:20;;;;;;;12.85;4.45;;;;;;;;;;4944470;29;20035;-75
2022/05/13 10:44:46;;;;;;;22.30;5.03;;;;;;;;;;4924832;29;20032;-76
2022/05/13 10:47:22;;;;;;;19.27;4.75;;;;;;;;;;4928621;29;20531;-76
2022/05/13 10:49:48;;;;;;;14.30;4.82;;;;;;;;;;4929390;29;20027;-76
2022/05/13 10:52:39;;;;;;;13.90;5.25;;;;;;;;;;4926980;29;20110;-76
2022/05/13 10:55:14;;;;;;;15.25;4.93;;;;;;;;;;4928744;29;20123;-73
2022/05/13 10:57:55;;;;;;;18.17;4.57;;;;;;;;;;4928706;29;20393;-74
2022/05/13 11:00:29;;;;;;;14.27;4.82;;;;;;;;;;4930622;29;20023;-76
2022/05/13 11:02:58;;;;;;;12.07;4.18;;;;;;;;;;4928497;29;20024;-73
2022/05/13 11:05:33;;;;;;;14.75;4.28;;;;;;;;;;4929330;29;20056;-75
2022/05/13 11:07:59;;;;;;;;;;;;;;;;;;4927299;29;20023;-76
2022/05/13 11:10:28;;;;;;;13.07;4.70;;;;;;;;;;4935766;29;20334;-75
2022/05/13 11:13:01;;;;;;;14.45;4.88;;;;;;;;;;4936856;29;20060;-75
2022/05/13 11:15:47;;;;;;;17.40;4.28;;;;;;;;;;4937395;29;20529;-74
2022/05/13 11:18:26;;;;;;;16.30;4.63;;;;;;;;;;4932759;29;20138;-76
2022/05/13 11:21:11;;;;;;;12.57;4.75;;;;;;;;;;4932819;29;20028;-76
2022/05/13 11:23:40;;;;;;;11.23;4.57;;;;;;;;;;4934091;29;20047;-75
2022/05/13 11:26:24;;;;;;;15.32;5.55;;;;;;;;;;4935351;29;20028;-74
2022/05/13 11:28:51;;;;;;;14.93;4.78;;;;;;;;;;4934009;29;20031;-76
2022/05/13 11:31:24;;;;;;;11.60;4.90;;;;;;;;;;4933843;29;20565;-76
2022/05/13 11:33:56;;;;;;;15.15;4.78;;;;;;;;;;4928702;29;20056;-74
2022/05/13 11:36:32;;;;;;;13.55;4.50;;;;;;;;;;4931769;29;20043;-75
2022/05/13 11:39:30;;;;;;;16.05;5.38;;;;;;;;;;4928314;29;20031;-75
2022/05/13 11:41:56;;;;;;;12.98;5.55;;;;;;;;;;4916850;28;20044;-75
2022/05/13 11:44:28;;;;;;;16.55;6.03;;;;;;;;;;4933067;29;20746;-76
2022/05/13 11:46:54;;;;;;;16.27;4.68;;;;;;;;;;4949674;28;20107;-75
2022/05/13 11:49:25;;;;;;;20.00;5.38;;;;;;;;;;4933730;29;20032;-75
2022/05/13 11:51:52;;;;;;;12.95;5.32;;;;;;;;;;4936234;29;20028;-75
2022/05/13 11:54:18;;;;;;;14.10;5.65;;;;;;;;;;4931980;29;20119;-74
2022/05/13 11:56:46;;;;;;;11.25;5.13;;;;;;;;;;4948371;28;20059;-74
2022/05/13 11:59:32;;;;;;;15.30;4.80;;;;;;;;;;4937255;29;20082;-75
2022/05/13 12:02:07;;;;;;;9.95;4.10;;;;;;;;;;4930199;29;20417;-76
2022/05/13 12:04:34;;;;;;;13.05;4.75;;;;;;;;;;4935425;29;20173;-75
2022/05/13 12:07:17;;;;;;;10.95;4.38;;;;;;;;;;4936287;29;20034;-75
2022/05/13 12:09:47;;;;;;;12.45;3.70;;;;;;;;;;4936677;29;20572;-75
2022/05/13 12:12:36;;;;;;;12.00;5.15;;;;;;;;;;4934754;29;20042;-76
2022/05/13 12:15:23;;;;;;;20.67;5.60;;;;;;;;;;4935186;29;21186;-75
2022/05/13 12:17:49;;;;;;;12.05;4.82;;;;;;;;;;4952708;29;20536;-75
2022/05/13 12:20:24;;;;;;;15.00;4.80;;;;;;;;;;4936673;29;20036;-76
2022/05/13 12:22:59;;;;;;;13.05;4.80;;;;;;;;;;4934425;29;20031;-75
2022/05/13 12:25:32;;;;;;;12.05;4.60;;;;;;;;;;4933535;29;20541;-76
2022/05/13 12:28:18;;;;;;;14.90;4.75;;;;;;;;;;4935291;29;20067;-75
2022/05/13 12:30:45;;;;;;;12.77;4.15;;;;;;;;;;4926359;29;20048;-76
2022/05/13 12:33:23;;;;;;;15.15;4.10;;;;;;;;;;4936613;29;20038;-75
2022/05/13 12:39:03;;;;;;;14.45;3.90;;;;;;;;;;4934365;29;20046;-77
2022/05/13 12:41:42;;;;;;;10.45;4.93;;;;;;;;;;4950072;28;20604;-76
2022/05/13 12:44:12;;;;;;;16.85;5.13;;;;;;;;;;4933387;29;20114;-75
2022/05/13 12:46:48;;;;;;;15.63;4.40;;;;;;;;;;4938005;29;20038;-75
2022/05/13 12:49:28;;;;;;;10.00;3.95;;;;;;;;;;4937294;29;20118;-76
2022/05/13 12:52:00;;;;;;;11.02;3.88;;;;;;;;;;4933997;29;20112;-75
2022/05/13 12:54:28;;;;;;;13.48;4.88;;;;;;;;;;4935527;29;20405;-74
2022/05/13 12:56:59;;;;;;;15.13;4.55;;;;;;;;;;4942597;28;20064;-75
2022/05/13 12:59:30;;;;;;;10.82;4.25;;;;;;;;;;4928709;29;20393;-77
2022/05/13 13:02:00;;;;;;;12.75;4.05;;;;;;;;;;4925486;29;20027;-77
2022/05/13 13:04:29;;;;;;;11.45;5.30;;;;;;;;;;4937193;28;20380;-80
2022/05/13 13:07:04;;;;;;;12.55;4.28;;;;;;;;;;4924849;29;20524;-82
2022/05/13 13:09:32;;;;;;;12.00;3.80;;;;;;;;;;4940523;28;20138;-77
2022/05/13 13:12:04;;;;;;;10.68;4.18;;;;;;;;;;4923959;29;20103;-80
2022/05/13 13:14:36;;;;;;;11.63;4.20;;;;;;;;;;4925188;29;20034;-79
2022/05/13 13:17:19;;;;;;;14.32;4.82;;;;;;;;;;4923146;29;20032;-78
2022/05/13 13:19:48;;;;;;;17.23;4.75;;;;;;;;;;4924493;29;20122;-77
2022/05/13 13:22:19;;;;;;;11.40;4.80;;;;;;;;;;4924491;29;20038;-77
2022/05/13 13:24:45;;;;;;;15.35;5.18;;;;;;;;;;4938814;28;20714;-79
2022/05/13 13:27:19;;;;;;;10.88;4.68;;;;;;;;;;4938394;29;20032;-77
2022/05/13 13:29:46;;;;;;;15.10;5.00;;;;;;;;;;4924082;29;20437;-76
2022/05/13 13:32:14;;;;;;;10.15;4.22;;;;;;;;;;4926860;29;20359;-75
2022/05/13 13:34:48;;;;;;;18.60;4.72;;;;;;;;;;4942756;29;20028;-79
2022/05/13 13:37:15;;;;;;;12.13;3.92;;;;;;;;;;4927749;29;20035;-78
2022/05/13 13:39:41;;;;;;;9.30;3.45;;;;;;;;;;4942677;28;20068;-78
2022/05/13 13:42:11;;;;;;;13.63;4.18;;;;;;;;;;4927587;29;20043;-77
2022/05/13 13:44:39;;;;;;;13.02;4.25;;;;;;;;;;4928160;29;20040;-78
2022/05/13 13:47:07;;;;;;;15.25;4.65;;;;;;;;;;4940289;28;20489;-77
2022/05/13 13:49:35;;;;;;;10.95;4.25;;;;;;;;;;4925540;29;20023;-78
2022/05/13 13:52:03;;;;;;;14.80;4.20;;;;;;;;;;4927771;29;20042;-76
2022/05/13 13:54:41;;;;;;;11.70;5.03;;;;;;;;;;4923420;29;20051;-75
2022/05/13 13:57:25;;;;;;;13.75;4.28;;;;;;;;;;4922065;29;20091;-78
2022/05/13 14:00:18;;;;;;;11.38;4.18;;;;;;;;;;4923117;29;20023;-77
2022/05/13 14:02:50;;;;;;;15.52;4.78;;;;;;;;;;4906598;29;20099;-77
2022/05/13 14:05:22;;;;;;;10.32;3.95;;;;;;;;;;4926602;29;20061;-78
2022/05/13 14:07:52;;;;;;;11.90;4.22;;;;;;;;;;4924570;29;20031;-78
2022/05/13 14:10:20;;;;;;;12.02;4.50;;;;;;;;;;4925866;29;20034;-78
2022/05/13 14:12:47;;;;;;;11.13;4.65;;;;;;;;;;4924545;29;20035;-77
2022/05/13 14:15:17;;;;;;;12.02;5.38;;;;;;;;;;4937586;28;20378;-78
2022/05/13 14:17:47;;;;;;;12.48;4.53;;;;;;;;;;4924717;29;20545;-80
2022/05/13 14:20:13;;;;;;;9.68;3.92;;;;;;;;;;4926166;29;20549;-79
2022/05/13 14:22:56;;;;;;;11.48;4.20;;;;;;;;;;4940649;28;20631;-77
2022/05/13 14:25:22;;;;;;;12.60;4.38;;;;;;;;;;4924355;29;20071;-79
2022/05/13 14:27:48;;;;;;;11.63;3.95;;;;;;;;;;4939749;28;20091;-75
2022/05/13 14:30:14;;;;;;;14.27;4.18;;;;;;;;;;4925913;29;20047;-78
2022/05/13 14:32:47;;;;;;;8.38;3.63;;;;;;;;;;4924218;29;20405;-79
2022/05/13 14:35:15;;;;;;;11.27;4.25;;;;;;;;;;4925867;29;20831;-79
2022/05/13 14:37:59;;;;;;;9.95;3.80;;;;;;;;;;4923863;29;20123;-77
2022/05/13 14:40:46;;;;;;;13.23;4.78;;;;;;;;;;4923385;29;20521;-78
2022/05/13 14:43:13;;;;;;;14.40;4.70;;;;;;;;;;4924187;29;20566;-77
2022/05/13 14:45:41;;;;;;;11.40;4.43;;;;;;;;;;4923247;29;20513;-77
2022/05/13 14:48:26;;;;;;;11.15;4.03;;;;;;;;;;4925119;29;20543;-76
2022/05/13 14:51:05;;;;;;;8.63;4.40;;;;;;;;;;4926135;29;20442;-78
2022/05/13 14:53:34;;;;;;;13.30;3.50;;;;;;;;;;4927954;29;20489;-77
2022/05/13 14:56:02;;;;;;;11.30;3.67;;;;;;;;;;4926429;29;20036;-80
2022/05/13 14:58:38;;;;;;;12.20;3.58;;;;;;;;;;4924228;29;20036;-78
2022/05/13 15:01:11;;;;;;;10.70;3.85;;;;;;;;;;4939547;28;20027;-78
2022/05/13 15:03:38;;;;;;;11.05;4.15;;;;;;;;;;4925073;29;20087;-77
2022/05/13 15:06:18;;;;;;;9.85;4.10;;;;;;;;;;4926788;29;20434;-76
2022/05/13 15:08:46;;;;;;;12.65;4.05;;;;;;;;;;4926230;29;20064;-75
2022/05/13 15:11:14;;;;;;;13.65;4.30;;;;;;;;;;4922889;29;20375;-77
2022/05/13 15:13:40;;;;;;;10.02;4.15;;;;;;;;;;4940253;29;20039;-78
2022/05/13 15:16:07;;;;;;;11.73;4.18;;;;;;;;;;4927693;29;20131;-78
2022/05/13 15:18:36;;;;;;;11.20;3.80;;;;;;;;;;4939810;28;20028;-75
2022/05/13 15:21:04;;;;;;;9.57;4.18;;;;;;;;;;4924943;29;20039;-79
2022/05/13 15:23:30;;;;;;;16.20;5.40;;;;;;;;;;4924308;29;20173;-75